Time;durP1;ratioP1;P1;durP2;ratioP2;P2;SDS_P1;SDS_P2;PMS_P1;PMS_P2;Temp;Humidity;BMP_temperature;BMP_pressure;BME280_temperature;BME280_humidity;BME280_pressure;Samples;Min_cycle;Max_cycle;Signal;HPM_P1;HPM_P2
2021/08/06 00:00:20;;;;;;;2.60;2.40;;;21.60;61.20;;;;;;5012166;28;20465;-90
2021/08/06 00:02:45;;;;;;;3.53;2.60;;;21.60;61.40;;;;;;5010950;28;20226;-89
2021/08/06 00:05:11;;;;;;;3.00;1.60;;;21.60;61.60;;;;;;5011617;28;20185;-90
2021/08/06 00:07:37;;;;;;;2.50;2.10;;;21.70;61.70;;;;;;5012188;28;20583;-89
2021/08/06 00:10:04;;;;;;;2.20;2.00;;;21.80;61.60;;;;;;5012984;28;20501;-89
2021/08/06 00:12:30;;;;;;;2.87;1.93;;;21.70;61.60;;;;;;5011359;28;20264;-89
2021/08/06 00:14:56;;;;;;;2.33;2.13;;;21.60;62.30;;;;;;5012315;28;20418;-90
2021/08/06 00:17:21;;;;;;;3.00;1.97;;;21.60;62.30;;;;;;5011572;28;20457;-89
2021/08/06 00:19:47;;;;;;;2.00;1.83;;;21.80;62.00;;;;;;5012358;28;20580;-90
2021/08/06 00:22:13;;;;;;;3.97;2.37;;;21.70;62.30;;;;;;5011354;28;20221;-90
2021/08/06 00:24:45;;;;;;;2.90;2.17;;;21.50;62.80;;;;;;5017073;28;20175;-90
2021/08/06 00:27:14;;;;;;;3.60;2.20;;;21.40;63.20;;;;;;5021814;28;20171;-89
2021/08/06 00:29:39;;;;;;;2.07;1.97;;;21.40;63.40;;;;;;5023339;28;20425;-90
2021/08/06 00:32:06;;;;;;;6.40;1.67;;;21.40;63.80;;;;;;5016429;28;20441;-90
2021/08/06 00:34:31;;;;;;;2.20;1.90;;;21.30;64.20;;;;;;5011543;28;20522;-90
2021/08/06 00:36:57;;;;;;;3.30;1.97;;;21.50;64.10;;;;;;5011687;28;20418;-90
2021/08/06 00:39:22;;;;;;;10.17;2.90;;;21.40;64.10;;;;;;5014075;28;20210;-90
2021/08/06 00:41:48;;;;;;;1.93;1.83;;;21.50;65.20;;;;;;5012031;28;20175;-90
2021/08/06 00:44:14;;;;;;;4.67;2.00;;;21.70;66.70;;;;;;5011701;28;20213;-90
2021/08/06 00:46:40;;;;;;;2.33;2.13;;;21.70;67.90;;;;;;5011991;28;20418;-89
2021/08/06 00:49:06;;;;;;;2.90;2.13;;;21.40;68.90;;;;;;5011500;28;20206;-90
2021/08/06 00:51:32;;;;;;;5.33;2.17;;;21.10;69.60;;;;;;5011143;28;20422;-90
2021/08/06 00:53:59;;;;;;;3.58;2.13;;;21.20;70.30;;;;;;5011616;28;20186;-90
2021/08/06 00:56:24;;;;;;;3.50;2.28;;;20.90;71.30;;;;;;5011235;28;20587;-90
2021/08/06 00:58:50;;;;;;;2.60;2.33;;;20.90;73.70;;;;;;5012410;28;20321;-90
2021/08/06 01:01:19;;;;;;;2.50;2.30;;;20.60;75.10;;;;;;5010985;28;20631;-90
2021/08/06 01:03:57;;;;;;;2.50;2.30;;;20.20;76.60;;;;;;5012839;28;20198;-89
2021/08/06 01:06:37;;;;;;;2.47;2.00;;;20.20;78.10;;;;;;5017949;28;20717;-90
2021/08/06 01:09:39;;;;;;;7.30;2.35;;;20.30;78.90;;;;;;5019834;28;20202;-90
2021/08/06 01:12:09;;;;;;;3.03;2.28;;;20.30;78.80;;;;;;5017812;28;20202;-89
2021/08/06 01:14:40;;;;;;;3.72;2.00;;;20.30;78.70;;;;;;5013038;28;20317;-90
2021/08/06 01:17:07;;;;;;;2.00;1.80;;;20.30;78.60;;;;;;5012800;28;20554;-89
2021/08/06 01:19:55;;;;;;;2.33;2.13;;;20.30;78.20;;;;;;5019574;28;20194;-90
2021/08/06 01:22:43;;;;;;;2.40;2.20;;;20.10;77.70;;;;;;5030016;28;20198;-90
2021/08/06 01:25:15;;;;;;;2.55;2.35;;;20.30;77.70;;;;;;5013702;28;20589;-90
2021/08/06 01:27:45;;;;;;;8.60;2.53;;;20.20;77.40;;;;;;5015310;28;20223;-90
2021/08/06 01:30:13;;;;;;;1.85;1.73;;;19.90;77.80;;;;;;5014450;28;20519;-90
2021/08/06 01:32:39;;;;;;;16.90;2.28;;;20.00;78.10;;;;;;5014378;28;20310;-90
2021/08/06 01:35:07;;;;;;;3.95;2.33;;;20.10;78.10;;;;;;5014359;28;20175;-90
2021/08/06 01:37:33;;;;;;;4.32;2.88;;;20.20;78.10;;;;;;5014117;28;20178;-90
2021/08/06 01:40:03;;;;;;;4.30;2.80;;;20.20;77.80;;;;;;5015395;28;20233;-90
2021/08/06 01:42:44;;;;;;;2.55;2.25;;;20.20;77.90;;;;;;5014658;28;20512;-90
2021/08/06 01:45:23;;;;;;;2.70;2.50;;;20.30;78.20;;;;;;5015272;28;20262;-90
2021/08/06 01:47:52;;;;;;;2.65;2.33;;;20.50;77.80;;;;;;5013794;28;20233;-90
2021/08/06 01:50:31;;;;;;;3.58;2.42;;;20.40;77.10;;;;;;5014108;28;20270;-90
2021/08/06 01:53:01;;;;;;;2.67;2.45;;;20.40;77.10;;;;;;5013962;28;20202;-90
2021/08/06 01:56:00;;;;;;;3.15;2.45;;;20.50;77.00;;;;;;5013999;28;20307;-90
2021/08/06 01:58:27;;;;;;;6.05;2.55;;;20.60;76.60;;;;;;5012762;28;20206;-90
2021/08/06 02:00:53;;;;;;;2.90;2.70;;;20.70;76.50;;;;;;5015243;28;20206;-90
2021/08/06 02:03:21;;;;;;;2.47;2.20;;;20.70;76.20;;;;;;5013539;28;20256;-90
2021/08/06 02:05:53;;;;;;;3.33;2.80;;;20.60;76.80;;;;;;5016063;28;20166;-90
2021/08/06 02:08:20;;;;;;;6.10;2.65;;;20.60;77.00;;;;;;5016091;28;20179;-90
2021/08/06 02:10:46;;;;;;;3.10;2.80;;;20.70;77.20;;;;;;5015207;28;20183;-90
2021/08/06 02:13:12;;;;;;;2.00;1.83;;;20.70;77.00;;;;;;5019661;28;20673;-89
2021/08/06 02:15:41;;;;;;;2.45;2.00;;;20.70;77.00;;;;;;5014421;28;20193;-90
2021/08/06 02:18:11;;;;;;;4.78;3.30;;;20.60;77.00;;;;;;5014325;28;20193;-90
2021/08/06 02:20:37;;;;;;;3.25;2.38;;;20.60;77.00;;;;;;5014944;28;20673;-90
2021/08/06 02:23:06;;;;;;;2.65;2.22;;;20.60;76.70;;;;;;5013280;28;20277;-90
2021/08/06 02:25:33;;;;;;;2.83;2.50;;;20.50;77.00;;;;;;5015390;28;20553;-90
2021/08/06 02:28:00;;;;;;;3.83;2.75;;;20.60;76.90;;;;;;5016568;28;20166;-90
2021/08/06 02:30:29;;;;;;;2.72;2.53;;;20.60;77.00;;;;;;5015662;28;20630;-90
2021/08/06 02:32:56;;;;;;;3.42;2.67;;;20.80;76.50;;;;;;5016981;28;20199;-90
2021/08/06 02:35:22;;;;;;;4.28;2.20;;;20.80;76.00;;;;;;5016478;28;20187;-90
2021/08/06 02:37:49;;;;;;;3.50;2.30;;;20.80;75.80;;;;;;5019048;28;20175;-90
2021/08/06 02:40:16;;;;;;;2.05;1.85;;;20.80;76.00;;;;;;5018059;28;20203;-90
2021/08/06 02:42:42;;;;;;;2.65;2.35;;;20.90;76.00;;;;;;5013420;28;20215;-90
2021/08/06 02:45:09;;;;;;;3.80;2.00;;;20.90;75.70;;;;;;5014025;28;20266;-90
2021/08/06 02:47:35;;;;;;;6.55;2.75;;;20.70;75.70;;;;;;5013275;28;20205;-90
2021/08/06 02:50:00;;;;;;;2.20;1.80;;;20.50;76.10;;;;;;5014130;28;20189;-90
2021/08/06 02:52:26;;;;;;;3.40;2.60;;;20.60;76.50;;;;;;5012425;28;20268;-90
2021/08/06 02:54:52;;;;;;;2.20;2.00;;;20.70;76.50;;;;;;5012979;28;20422;-90
2021/08/06 02:57:18;;;;;;;4.60;2.43;;;20.80;76.40;;;;;;5013528;28;20182;-90
2021/08/06 02:59:44;;;;;;;3.33;2.50;;;20.90;76.10;;;;;;5013046;28;20276;-90
2021/08/06 03:02:09;;;;;;;2.57;2.37;;;20.80;76.00;;;;;;5013281;28;20497;-90
2021/08/06 03:04:35;;;;;;;2.73;2.53;;;20.80;76.40;;;;;;5012785;28;20186;-90
2021/08/06 03:07:01;;;;;;;3.30;2.43;;;20.90;76.60;;;;;;5012996;28;20175;-90
2021/08/06 03:09:26;;;;;;;2.83;2.63;;;20.90;76.80;;;;;;5014376;28;20514;-90
2021/08/06 03:11:52;;;;;;;3.60;2.53;;;20.70;77.00;;;;;;5012722;28;20194;-90
2021/08/06 03:14:19;;;;;;;3.87;2.37;;;20.50;78.20;;;;;;5013651;28;20174;-90
2021/08/06 03:16:45;;;;;;;3.35;2.55;;;20.30;79.50;;;;;;5013717;28;20581;-90
2021/08/06 03:19:10;;;;;;;3.27;2.70;;;20.20;80.50;;;;;;5012566;28;20183;-90
2021/08/06 03:21:36;;;;;;;4.43;2.63;;;20.20;81.00;;;;;;5012970;28;20665;-90
2021/08/06 03:24:02;;;;;;;2.30;2.10;;;20.10;81.00;;;;;;5012734;28;20174;-90
2021/08/06 03:26:28;;;;;;;2.67;2.47;;;20.10;81.00;;;;;;5016432;28;20233;-90
2021/08/06 03:28:53;;;;;;;2.57;2.20;;;20.10;81.00;;;;;;5012347;28;20430;-90
2021/08/06 03:31:19;;;;;;;3.40;2.17;;;20.20;80.70;;;;;;5011804;28;20617;-91
2021/08/06 03:33:45;;;;;;;3.60;2.30;;;20.10;80.80;;;;;;5013698;28;20213;-90
2021/08/06 03:36:12;;;;;;;3.43;2.93;;;20.00;80.70;;;;;;5012343;28;20243;-90
2021/08/06 03:38:38;;;;;;;4.28;2.90;;;20.10;80.70;;;;;;5011840;28;20197;-90
2021/08/06 03:41:04;;;;;;;3.97;2.23;;;20.10;80.50;;;;;;5012750;28;20206;-90
2021/08/06 03:43:30;;;;;;;6.25;2.33;;;20.10;80.10;;;;;;5011666;28;20457;-90
2021/08/06 03:45:55;;;;;;;4.47;2.47;;;20.20;79.50;;;;;;5013635;28;20170;-90
2021/08/06 03:48:21;;;;;;;3.13;2.40;;;20.20;79.30;;;;;;5011578;28;20232;-90
2021/08/06 03:50:47;;;;;;;2.50;1.87;;;20.20;79.20;;;;;;5013094;28;20257;-90
2021/08/06 03:53:12;;;;;;;2.80;2.40;;;20.30;79.10;;;;;;5011587;28;20288;-90
2021/08/06 03:55:38;;;;;;;1.93;1.83;;;20.20;79.00;;;;;;5011704;28;20189;-90
2021/08/06 03:58:04;;;;;;;2.13;1.93;;;20.20;79.10;;;;;;5012053;28;20688;-90
2021/08/06 04:00:40;;;;;;;3.40;2.60;;;20.10;79.20;;;;;;5011735;28;20490;-90
2021/08/06 04:03:07;;;;;;;3.33;2.47;;;20.10;79.40;;;;;;5011403;28;20205;-89
2021/08/06 04:05:34;;;;;;;4.72;2.95;;;20.10;79.60;;;;;;5013774;28;20190;-90
2021/08/06 04:08:05;;;;;;;4.35;2.58;;;20.10;80.10;;;;;;5012102;28;20477;-90
2021/08/06 04:10:31;;;;;;;3.50;2.58;;;20.30;80.10;;;;;;5013900;28;20194;-90
2021/08/06 04:12:57;;;;;;;4.53;3.00;;;20.30;80.20;;;;;;5011588;28;20207;-90
2021/08/06 04:15:22;;;;;;;6.07;2.60;;;20.40;79.30;;;;;;5012020;28;20428;-90
2021/08/06 04:17:48;;;;;;;7.50;2.90;;;20.20;79.50;;;;;;5012073;28;20433;-90
2021/08/06 04:20:14;;;;;;;3.07;2.67;;;20.10;80.30;;;;;;5012211;28;20224;-90
2021/08/06 04:22:41;;;;;;;6.78;2.90;;;20.00;80.20;;;;;;5011911;28;20276;-90
2021/08/06 04:25:08;;;;;;;9.30;2.80;;;20.00;80.40;;;;;;5012403;28;20240;-90
2021/08/06 04:27:34;;;;;;;2.97;2.67;;;19.90;80.30;;;;;;5012488;28;20641;-90
2021/08/06 04:30:00;;;;;;;8.20;2.33;;;19.90;80.30;;;;;;5014232;28;20183;-90
2021/08/06 04:32:25;;;;;;;3.57;2.80;;;19.90;80.20;;;;;;5011165;28;20858;-90
2021/08/06 04:34:51;;;;;;;3.97;2.97;;;20.10;80.10;;;;;;5011312;28;20179;-90
2021/08/06 04:37:17;;;;;;;4.07;3.27;;;20.20;79.50;;;;;;5011586;28;20685;-90
2021/08/06 04:39:42;;;;;;;4.20;2.73;;;20.20;78.80;;;;;;5011593;28;20209;-90
2021/08/06 04:42:08;;;;;;;3.83;2.23;;;20.10;79.10;;;;;;5010886;28;20205;-90
2021/08/06 04:44:38;;;;;;;3.17;2.07;;;20.10;79.40;;;;;;5031054;28;20174;-90
2021/08/06 04:47:04;;;;;;;2.50;2.30;;;20.20;78.70;;;;;;5022755;28;20542;-90
2021/08/06 04:49:30;;;;;;;4.30;2.15;;;20.30;78.60;;;;;;5011737;28;20491;-90
2021/08/06 04:51:56;;;;;;;3.30;2.30;;;20.40;77.50;;;;;;5010636;28;20225;-90
2021/08/06 04:54:23;;;;;;;6.07;2.50;;;20.40;76.70;;;;;;5011825;28;20428;-89
2021/08/06 04:56:49;;;;;;;2.30;2.10;;;20.40;77.00;;;;;;5011962;28;20213;-90
2021/08/06 04:59:14;;;;;;;3.10;2.30;;;20.30;77.20;;;;;;5012578;28;20182;-90
2021/08/06 05:01:40;;;;;;;2.33;1.83;;;20.30;77.30;;;;;;5014745;28;20221;-90
2021/08/06 05:04:06;;;;;;;3.60;2.23;;;20.40;77.30;;;;;;5015289;28;20753;-90
2021/08/06 05:06:31;;;;;;;2.70;2.50;;;20.40;76.50;;;;;;5015236;28;20543;-90
2021/08/06 05:08:57;;;;;;;3.30;2.27;;;20.20;77.30;;;;;;5014947;28;20174;-90
2021/08/06 05:11:23;;;;;;;4.67;2.70;;;20.40;77.00;;;;;;5014160;28;20189;-90
2021/08/06 05:13:49;;;;;;;3.67;2.17;;;20.30;76.80;;;;;;5014663;28;20195;-90
2021/08/06 05:16:14;;;;;;;2.53;1.93;;;20.30;77.20;;;;;;5014804;28;20174;-90
2021/08/06 05:18:40;;;;;;;3.53;2.00;;;20.40;76.90;;;;;;5014545;28;20187;-90
2021/08/06 05:21:07;;;;;;;4.50;2.53;;;20.40;76.50;;;;;;5014319;28;20876;-90
2021/08/06 05:23:32;;;;;;;5.13;2.30;;;20.40;76.00;;;;;;5014410;28;20499;-90
2021/08/06 05:25:58;;;;;;;2.13;1.90;;;20.60;75.10;;;;;;5014600;28;20178;-89
2021/08/06 05:28:25;;;;;;;1.83;1.70;;;20.60;74.80;;;;;;5014838;28;20547;-90
2021/08/06 05:30:50;;;;;;;3.15;2.25;;;20.70;74.60;;;;;;5014740;28;20424;-90
2021/08/06 05:33:16;;;;;;;3.30;2.07;;;20.60;74.90;;;;;;5014239;28;20580;-90
2021/08/06 05:35:42;;;;;;;1.97;1.70;;;20.70;74.50;;;;;;5015916;28;20324;-90
2021/08/06 05:38:08;;;;;;;2.27;2.07;;;20.90;74.10;;;;;;5015182;28;20256;-90
2021/08/06 05:40:34;;;;;;;5.25;2.90;;;20.90;74.60;;;;;;5015082;28;20209;-90
2021/08/06 05:43:00;;;;;;;3.75;2.35;;;20.90;74.40;;;;;;5014021;28;20245;-90
2021/08/06 05:45:26;;;;;;;3.10;1.53;;;20.90;74.80;;;;;;5014403;28;20646;-90
2021/08/06 05:47:54;;;;;;;4.13;2.00;;;21.10;74.50;;;;;;5015021;28;20178;-90
2021/08/06 05:50:25;;;;;;;8.50;3.55;;;21.40;72.80;;;;;;5014731;28;20182;-90
2021/08/06 05:52:51;;;;;;;4.83;2.23;;;21.40;71.60;;;;;;5014318;28;20274;-90
2021/08/06 05:55:17;;;;;;;4.75;3.35;;;21.40;71.70;;;;;;5014707;28;20790;-90
2021/08/06 05:57:44;;;;;;;3.40;2.30;;;21.40;72.10;;;;;;5014149;28;20241;-90
2021/08/06 06:00:11;;;;;;;2.50;2.30;;;21.40;72.20;;;;;;5013804;28;20713;-90
2021/08/06 06:02:37;;;;;;;4.15;3.20;;;21.30;71.70;;;;;;5013693;28;20937;-90
2021/08/06 06:05:04;;;;;;;3.07;2.40;;;21.40;71.60;;;;;;5014272;28;20205;-90
2021/08/06 06:07:30;;;;;;;3.65;2.65;;;21.40;71.40;;;;;;5014368;28;20505;-90
2021/08/06 06:09:56;;;;;;;7.07;2.70;;;21.50;71.10;;;;;;5013900;28;20269;-90
2021/08/06 06:12:21;;;;;;;6.10;2.80;;;21.40;71.00;;;;;;5013748;28;20203;-90
2021/08/06 06:14:47;;;;;;;6.40;3.10;;;21.40;70.90;;;;;;5015335;28;20571;-90
2021/08/06 06:17:13;;;;;;;3.90;2.67;;;21.40;71.10;;;;;;5014730;28;20452;-90
2021/08/06 06:19:45;;;;;;;5.30;3.05;;;21.50;70.70;;;;;;5014238;28;20214;-90
2021/08/06 06:22:11;;;;;;;3.27;2.90;;;21.40;70.30;;;;;;5013383;28;20202;-90
2021/08/06 06:24:36;;;;;;;2.90;2.60;;;21.50;71.10;;;;;;5013942;28;20410;-90
2021/08/06 06:27:03;;;;;;;6.87;2.50;;;21.50;71.20;;;;;;5014592;28;20418;-90
2021/08/06 06:29:28;;;;;;;2.97;2.40;;;21.80;69.80;;;;;;5014218;28;20178;-90
2021/08/06 06:31:54;;;;;;;4.60;2.30;;;22.00;68.80;;;;;;5014448;28;20759;-90
2021/08/06 06:34:20;;;;;;;28.93;3.83;;;22.00;68.90;;;;;;5015002;28;20273;-90
2021/08/06 06:36:46;;;;;;;3.30;2.50;;;22.10;68.30;;;;;;5014095;28;20270;-90
2021/08/06 06:39:11;;;;;;;3.23;2.13;;;22.20;67.30;;;;;;5014454;28;20240;-89
2021/08/06 06:41:37;;;;;;;5.80;2.43;;;22.30;67.20;;;;;;5015191;28;20499;-91
2021/08/06 06:44:03;;;;;;;3.17;2.30;;;22.30;67.00;;;;;;5014833;28;20289;-90
2021/08/06 06:46:29;;;;;;;5.20;2.80;;;22.10;66.80;;;;;;5013562;28;20421;-90
2021/08/06 06:48:55;;;;;;;7.87;3.30;;;22.10;67.20;;;;;;5013907;28;20432;-90
2021/08/06 06:51:21;;;;;;;5.47;3.43;;;22.00;67.10;;;;;;5013726;28;20190;-90
2021/08/06 06:53:47;;;;;;;3.10;2.80;;;22.00;67.30;;;;;;5014705;28;20233;-90
2021/08/06 06:56:13;;;;;;;3.90;2.97;;;22.00;67.60;;;;;;5014864;28;20432;-90
2021/08/06 06:58:39;;;;;;;4.47;2.70;;;22.00;67.00;;;;;;5015114;28;20422;-90
2021/08/06 07:01:05;;;;;;;3.60;2.77;;;22.20;67.20;;;;;;5014925;28;20491;-90
2021/08/06 07:03:32;;;;;;;3.00;2.67;;;22.50;67.00;;;;;;5015983;28;20433;-90
2021/08/06 07:05:58;;;;;;;4.80;2.70;;;22.70;66.10;;;;;;5015415;28;20428;-90
2021/08/06 07:08:23;;;;;;;8.00;2.60;;;22.90;64.80;;;;;;5015279;28;20418;-90
2021/08/06 07:10:49;;;;;;;7.03;3.13;;;23.10;64.20;;;;;;5015415;28;20426;-91
2021/08/06 07:13:15;;;;;;;9.07;2.80;;;23.20;64.20;;;;;;5015304;28;20206;-90
2021/08/06 07:15:41;;;;;;;14.50;3.67;;;23.10;63.40;;;;;;5015706;28;20672;-90
2021/08/06 07:18:10;;;;;;;2.93;2.73;;;23.30;62.70;;;;;;5016286;28;20234;-90
2021/08/06 07:20:36;;;;;;;8.83;3.93;;;23.10;62.70;;;;;;5016061;28;20248;-90
2021/08/06 07:23:01;;;;;;;16.10;2.90;;;23.10;63.00;;;;;;5015916;28;20440;-90
2021/08/06 07:25:27;;;;;;;5.70;2.93;;;23.00;63.20;;;;;;5016969;28;20186;-90
2021/08/06 07:27:54;;;;;;;4.93;2.50;;;22.70;63.40;;;;;;5017629;28;20217;-90
2021/08/06 07:30:20;;;;;;;4.80;2.27;;;22.70;63.90;;;;;;5018309;28;20187;-90
2021/08/06 07:32:46;;;;;;;4.83;3.60;;;22.60;64.00;;;;;;5016161;28;20814;-91
2021/08/06 07:35:12;;;;;;;7.73;2.63;;;22.70;64.60;;;;;;5014282;28;20616;-90
2021/08/06 07:37:40;;;;;;;13.30;3.70;;;22.70;64.70;;;;;;5014770;28;20493;-90
2021/08/06 07:40:06;;;;;;;6.17;2.53;;;22.80;64.60;;;;;;5016013;28;20576;-90
2021/08/06 07:42:32;;;;;;;3.50;2.30;;;22.80;64.50;;;;;;5013877;28;20567;-90
2021/08/06 07:44:58;;;;;;;2.50;2.30;;;23.10;64.10;;;;;;5013903;28;20744;-90
2021/08/06 07:47:24;;;;;;;8.20;3.07;;;23.20;62.80;;;;;;5012326;28;20179;-91
2021/08/06 07:49:49;;;;;;;4.33;2.67;;;23.30;62.90;;;;;;5012690;28;20182;-91
2021/08/06 07:52:16;;;;;;;2.87;2.63;;;23.30;62.10;;;;;;5013139;28;20217;-90
2021/08/06 07:54:42;;;;;;;24.27;4.03;;;23.50;61.10;;;;;;5012276;28;20190;-90
2021/08/06 07:57:08;;;;;;;3.53;2.90;;;23.40;60.20;;;;;;5012508;28;20414;-90
2021/08/06 07:59:35;;;;;;;7.73;2.20;;;23.40;60.40;;;;;;5011775;28;20464;-90
2021/08/06 08:02:00;;;;;;;4.00;2.80;;;23.50;60.80;;;;;;5011703;28;20579;-90
2021/08/06 08:04:26;;;;;;;3.60;1.80;;;23.40;60.20;;;;;;5012323;28;20488;-90
2021/08/06 08:06:52;;;;;;;3.10;2.57;;;23.00;61.00;;;;;;5030821;28;20226;-90
2021/08/06 08:09:17;;;;;;;5.40;1.90;;;22.70;61.30;;;;;;5027032;28;20602;-90
2021/08/06 08:11:43;;;;;;;2.90;1.70;;;22.60;61.40;;;;;;5011561;28;20233;-90
2021/08/06 08:14:09;;;;;;;2.13;1.63;;;22.80;61.40;;;;;;5012233;28;20649;-90
2021/08/06 08:16:34;;;;;;;6.93;2.20;;;22.80;61.50;;;;;;5011810;28;20192;-90
2021/08/06 08:19:00;;;;;;;4.37;1.80;;;22.80;61.60;;;;;;5011819;28;20229;-90
2021/08/06 08:21:26;;;;;;;4.37;2.17;;;22.80;61.50;;;;;;5011358;28;20291;-91
2021/08/06 08:23:51;;;;;;;2.87;1.97;;;22.70;62.10;;;;;;5013984;28;20198;-90
2021/08/06 08:26:19;;;;;;;3.63;2.20;;;22.60;62.50;;;;;;5016179;28;20189;-90
2021/08/06 08:28:45;;;;;;;3.33;1.83;;;22.50;62.60;;;;;;5013296;28;20175;-90
2021/08/06 08:31:10;;;;;;;3.33;1.80;;;22.70;62.10;;;;;;5014896;28;20938;-90
2021/08/06 08:33:36;;;;;;;3.60;2.50;;;22.80;61.40;;;;;;5015056;28;20660;-91
2021/08/06 08:36:04;;;;;;;4.13;2.07;;;22.90;61.20;;;;;;5017246;28;20261;-91
2021/08/06 08:38:30;;;;;;;2.50;1.93;;;22.80;60.30;;;;;;5016093;28;20936;-91
2021/08/06 08:40:57;;;;;;;4.50;2.40;;;23.10;60.50;;;;;;5015846;28;20489;-91
2021/08/06 08:43:24;;;;;;;7.73;1.97;;;23.20;59.70;;;;;;5016088;28;20846;-91
2021/08/06 08:45:50;;;;;;;3.57;2.03;;;23.20;58.30;;;;;;5015577;28;20733;-91
2021/08/06 08:48:19;;;;;;;3.43;2.07;;;23.30;58.10;;;;;;5015745;28;20421;-91
2021/08/06 08:50:45;;;;;;;4.63;2.50;;;23.60;57.80;;;;;;5015555;28;20429;-91
2021/08/06 08:53:11;;;;;;;9.23;2.67;;;23.60;56.10;;;;;;5014679;28;20855;-92
2021/08/06 08:55:38;;;;;;;3.00;2.30;;;23.70;56.70;;;;;;5015225;28;20512;-91
2021/08/06 08:58:05;;;;;;;8.33;3.57;;;24.00;56.30;;;;;;4999072;28;20936;-91
2021/08/06 09:00:31;;;;;;;2.50;2.30;;;23.90;56.10;;;;;;5016290;28;20997;-91
2021/08/06 09:02:56;;;;;;;2.67;1.93;;;24.00;55.20;;;;;;5014579;28;20539;-91
2021/08/06 09:05:26;;;;;;;2.60;1.93;;;24.20;55.40;;;;;;5015049;28;20292;-91
2021/08/06 09:07:52;;;;;;;3.93;2.10;;;23.90;54.70;;;;;;5015005;28;20421;-91
2021/08/06 09:10:27;;;;;;;3.53;2.13;;;23.30;55.80;;;;;;5015083;28;20425;-91
2021/08/06 09:13:00;;;;;;;2.77;2.03;;;23.10;56.70;;;;;;5014573;28;20939;-91
2021/08/06 09:15:41;;;;;;;2.57;2.37;;;23.00;57.40;;;;;;5014706;28;20928;-91
2021/08/06 09:18:35;;;;;;;2.07;1.60;;;22.80;58.90;;;;;;5015469;28;20496;-91
2021/08/06 09:21:05;;;;;;;4.00;2.53;;;22.80;60.50;;;;;;5014805;28;20461;-91
2021/08/06 09:23:47;;;;;;;2.50;2.30;;;22.60;62.00;;;;;;5015942;28;20468;-91
2021/08/06 09:26:34;;;;;;;2.73;1.90;;;22.50;63.80;;;;;;5015218;28;20940;-92
2021/08/06 09:29:10;;;;;;;3.90;2.17;;;22.60;64.00;;;;;;5015488;28;20425;-91
2021/08/06 09:31:40;;;;;;;2.07;1.60;;;22.90;63.90;;;;;;5014660;28;20417;-92
2021/08/06 09:34:12;;;;;;;2.20;1.60;;;23.20;62.40;;;;;;5014691;28;20925;-91
2021/08/06 09:36:38;;;;;;;3.30;2.10;;;23.40;61.60;;;;;;5014575;28;20426;-91
2021/08/06 09:39:15;;;;;;;2.43;1.97;;;23.50;61.20;;;;;;5014551;28;20449;-91
2021/08/06 09:41:43;;;;;;;6.00;1.70;;;23.50;62.30;;;;;;5013865;28;20551;-91
2021/08/06 09:44:18;;;;;;;7.70;2.00;;;23.40;63.40;;;;;;5014154;28;20952;-92
2021/08/06 09:46:44;;;;;;;7.83;2.60;;;23.10;64.90;;;;;;5014459;28;20417;-92
2021/08/06 09:49:11;;;;;;;2.90;2.23;;;22.90;67.50;;;;;;5014539;28;20476;-92
2021/08/06 09:51:39;;;;;;;1.90;1.80;;;22.50;68.70;;;;;;5013369;28;20562;-91
2021/08/06 09:54:26;;;;;;;3.08;1.60;;;22.20;69.20;;;;;;5014013;28;20516;-91
2021/08/06 09:57:11;;;;;;;1.97;1.70;;;22.10;69.60;;;;;;5015964;28;20179;-92
2021/08/06 09:59:38;;;;;;;2.77;1.97;;;22.10;70.40;;;;;;5013810;28;21042;-91
2021/08/06 10:02:14;;;;;;;3.13;2.37;;;21.90;69.10;;;;;;5013553;28;20955;-91
2021/08/06 10:04:40;;;;;;;4.60;1.50;;;22.10;70.50;;;;;;5013808;28;20833;-91
2021/08/06 10:07:07;;;;;;;11.67;2.80;;;22.50;70.80;;;;;;5013875;28;20951;-91
2021/08/06 10:09:33;;;;;;;4.33;2.00;;;22.50;68.40;;;;;;5014108;28;20421;-91
2021/08/06 10:11:59;;;;;;;2.30;2.10;;;22.80;68.60;;;;;;5013120;28;20509;-91
2021/08/06 10:14:25;;;;;;;3.47;1.90;;;23.10;67.70;;;;;;5015435;28;20417;-92
2021/08/06 10:16:51;;;;;;;3.30;1.97;;;23.10;65.80;;;;;;5013578;28;20530;-92
2021/08/06 10:19:16;;;;;;;2.90;1.93;;;23.10;66.10;;;;;;5013539;28;20175;-91
2021/08/06 10:21:42;;;;;;;2.57;1.47;;;23.20;65.80;;;;;;5013297;28;20174;-92
2021/08/06 10:24:14;;;;;;;2.17;1.97;;;23.30;65.00;;;;;;5013627;28;20543;-92
2021/08/06 10:26:47;;;;;;;5.23;1.70;;;23.30;64.00;;;;;;5013849;28;20456;-91
2021/08/06 10:29:13;;;;;;;3.03;1.77;;;23.30;64.50;;;;;;5013588;28;20786;-92
2021/08/06 10:31:39;;;;;;;1.93;1.73;;;23.20;62.50;;;;;;5013311;28;20450;-92
2021/08/06 10:34:12;;;;;;;3.33;1.90;;;23.30;62.50;;;;;;5013522;28;20418;-91
2021/08/06 10:36:50;;;;;;;4.47;1.70;;;23.30;62.20;;;;;;4997453;28;20488;-92
2021/08/06 10:39:33;;;;;;;2.10;1.50;;;23.40;62.20;;;;;;5013193;28;20432;-91
2021/08/06 10:42:00;;;;;;;2.50;1.50;;;23.90;62.10;;;;;;5012920;28;20870;-92
2021/08/06 10:44:46;;;;;;;6.20;1.63;;;24.10;60.80;;;;;;5013267;28;20774;-91
2021/08/06 10:47:12;;;;;;;12.20;2.97;;;24.50;59.80;;;;;;4999758;28;20439;-92
2021/08/06 10:49:38;;;;;;;2.60;1.70;;;24.80;59.50;;;;;;5013308;28;20779;-92
2021/08/06 10:52:18;;;;;;;2.30;1.57;;;24.90;57.80;;;;;;5013148;28;20203;-92
2021/08/06 10:54:45;;;;;;;3.40;1.50;;;25.00;57.20;;;;;;5013181;28;20166;-92
2021/08/06 10:57:20;;;;;;;4.03;1.60;;;25.40;56.30;;;;;;5013311;28;20437;-92
2021/08/06 10:59:49;;;;;;;3.53;2.30;;;25.20;55.40;;;;;;5014575;28;20457;-92
2021/08/06 11:02:33;;;;;;;3.50;1.80;;;25.30;55.50;;;;;;5014306;28;20445;-92
2021/08/06 11:05:00;;;;;;;2.50;1.53;;;25.20;55.00;;;;;;5014618;28;20504;-92
2021/08/06 11:07:37;;;;;;;5.00;3.10;;;25.10;54.80;;;;;;5016326;28;20501;-92
2021/08/06 11:10:04;;;;;;;2.13;1.60;;;25.00;54.80;;;;;;5017012;28;20780;-92
2021/08/06 11:12:33;;;;;;;8.90;2.00;;;25.10;54.70;;;;;;5016086;28;20804;-92
2021/08/06 11:15:08;;;;;;;4.03;1.97;;;25.40;54.40;;;;;;5014464;28;20464;-92
2021/08/06 11:17:47;;;;;;;5.13;1.90;;;25.70;53.40;;;;;;5105187;27;20520;-90
2021/08/06 11:20:19;;;;;;;2.03;1.50;;;25.80;52.50;;;;;;5070787;28;20518;-89
2021/08/06 11:22:50;;;;;;;5.23;2.10;;;26.10;51.60;;;;;;5070302;28;20813;-90
2021/08/06 11:25:23;;;;;;;2.90;2.23;;;26.20;50.90;;;;;;5071259;28;20421;-90
2021/08/06 11:27:52;;;;;;;2.63;2.13;;;26.10;50.20;;;;;;5082972;28;20415;-90
2021/08/06 11:30:23;;;;;;;5.70;1.53;;;25.90;50.10;;;;;;5093025;28;20467;-89
2021/08/06 11:32:57;;;;;;;2.93;1.50;;;25.90;50.70;;;;;;5068291;28;20438;-90
2021/08/06 11:35:35;;;;;;;7.50;1.60;;;25.90;50.30;;;;;;5068643;28;20760;-90
2021/08/06 11:38:06;;;;;;;3.30;1.80;;;26.10;52.00;;;;;;5069360;28;20419;-90
2021/08/06 11:40:43;;;;;;;1.60;1.50;;;26.30;50.40;;;;;;5070282;28;20415;-90
2021/08/06 11:43:23;;;;;;;6.67;1.80;;;26.30;50.30;;;;;;5072844;28;20464;-90
2021/08/06 11:46:05;;;;;;;5.90;1.20;;;26.00;50.10;;;;;;5072547;28;20423;-90
2021/08/06 11:48:51;;;;;;;1.37;1.27;;;25.60;49.60;;;;;;5069773;28;20480;-90
2021/08/06 11:51:18;;;;;;;3.80;1.57;;;25.40;50.40;;;;;;5067898;28;20430;-91
2021/08/06 11:53:46;;;;;;;1.53;1.33;;;25.60;51.20;;;;;;5068107;28;20485;-90
2021/08/06 11:56:20;;;;;;;1.40;1.30;;;25.60;50.90;;;;;;5068778;28;20490;-90
2021/08/06 11:58:46;;;;;;;3.70;1.80;;;25.90;50.70;;;;;;5068394;28;20495;-90
2021/08/06 12:01:18;;;;;;;1.40;1.27;;;26.00;51.00;;;;;;5068208;28;20430;-90
2021/08/06 12:03:53;;;;;;;1.50;1.40;;;26.20;50.70;;;;;;5069388;28;20849;-90
2021/08/06 12:06:20;;;;;;;1.97;1.40;;;26.00;49.40;;;;;;5068192;28;20469;-90
2021/08/06 12:08:48;;;;;;;3.27;1.47;;;25.70;49.50;;;;;;5068732;28;20454;-90
2021/08/06 12:11:16;;;;;;;2.17;1.40;;;25.80;49.80;;;;;;5067594;28;20502;-90
2021/08/06 12:14:05;;;;;;;4.03;3.10;;;25.50;50.50;;;;;;5068063;28;20438;-90
2021/08/06 12:16:41;;;;;;;7.23;1.30;;;25.40;51.10;;;;;;5067971;28;21000;-90
2021/08/06 12:19:09;;;;;;;2.23;1.20;;;25.10;51.10;;;;;;5069575;28;20425;-90
2021/08/06 12:21:39;;;;;;;1.60;1.40;;;24.90;52.00;;;;;;5079962;28;20819;-90
2021/08/06 12:24:12;;;;;;;1.10;1.00;;;24.80;52.60;;;;;;5079570;28;20803;-90
2021/08/06 12:26:38;;;;;;;2.60;1.60;;;24.70;53.10;;;;;;5079928;28;20415;-90
2021/08/06 12:29:12;;;;;;;3.53;1.40;;;24.60;53.50;;;;;;5055545;28;20424;-90
2021/08/06 12:32:01;;;;;;;3.90;1.00;;;24.60;54.20;;;;;;5054043;28;20620;-90
2021/08/06 12:34:28;;;;;;;2.60;0.93;;;24.40;53.60;;;;;;5054425;28;20857;-90
2021/08/06 12:37:09;;;;;;;4.03;1.20;;;24.30;54.70;;;;;;5054377;28;20821;-90
2021/08/06 12:39:56;;;;;;;6.90;1.43;;;24.40;54.70;;;;;;5054791;28;20510;-90
2021/08/06 12:42:31;;;;;;;3.20;1.33;;;24.50;54.90;;;;;;5053557;28;20805;-90
2021/08/06 12:45:05;;;;;;;1.50;1.40;;;24.80;54.20;;;;;;5054221;28;20443;-90
2021/08/06 12:47:55;;;;;;;2.50;1.53;;;24.90;54.10;;;;;;5054011;28;20415;-90
2021/08/06 12:50:21;;;;;;;10.67;1.63;;;24.90;54.20;;;;;;5053967;28;20929;-90
2021/08/06 12:52:58;;;;;;;2.70;1.10;;;24.90;53.70;;;;;;5053691;28;20439;-90